Time;durP1;ratioP1;P1;durP2;ratioP2;P2;SDS_P1;SDS_P2;PMS_P1;PMS_P2;Temp;Humidity;BMP_temperature;BMP_pressure;BME280_temperature;BME280_humidity;BME280_pressure;Samples;Min_cycle;Max_cycle;Signal;HPM_P1;HPM_P2
2022/02/11 00:00:17;;;;;;;6.90;5.53;;;2.90;99.90;;;;;;5076438;28;20585;-62
2022/02/11 00:05:45;;;;;;;6.87;4.90;;;3.00;99.90;;;;;;5074382;28;20527;-62
2022/02/11 00:08:15;;;;;;;8.40;6.60;;;3.00;99.90;;;;;;5070843;28;20461;-62
2022/02/11 00:10:43;;;;;;;8.80;5.33;;;3.00;99.90;;;;;;5074217;28;20465;-62
2022/02/11 00:13:10;;;;;;;7.20;5.47;;;3.00;99.90;;;;;;5066221;28;20466;-62
2022/02/11 00:15:41;;;;;;;6.93;6.17;;;3.00;99.90;;;;;;5070193;28;20794;-63
2022/02/11 00:18:10;;;;;;;9.80;7.37;;;3.00;99.90;;;;;;5070629;28;20485;-62
2022/02/11 00:20:38;;;;;;;9.43;7.70;;;3.10;99.90;;;;;;5077980;28;20506;-62
2022/02/11 00:23:09;;;;;;;10.60;8.27;;;3.10;99.90;;;;;;5079553;28;20435;-62
2022/02/11 00:25:39;;;;;;;10.50;8.30;;;3.10;99.90;;;;;;5079424;28;20453;-62
2022/02/11 00:31:25;;;;;;;9.97;8.87;;;3.10;99.90;;;;;;5056478;28;20419;-62
2022/02/11 00:33:58;;;;;;;11.40;10.07;;;3.10;99.90;;;;;;5080853;28;20464;-63
2022/02/11 00:36:30;;;;;;;11.43;8.67;;;3.20;99.90;;;;;;5091959;28;20948;-62
2022/02/11 00:39:36;;;;;;;11.03;9.60;;;3.10;99.90;;;;;;5100829;28;20498;-62
2022/02/11 00:53:44;;;;;;;11.33;9.67;;;3.10;99.90;;;;;;5080012;28;20436;-62
2022/02/11 01:04:32;;;;;;;16.50;11.60;;;3.10;99.90;;;;;;5059391;28;20820;-62
2022/02/11 01:07:02;;;;;;;12.93;10.60;;;3.10;99.90;;;;;;5065044;28;20893;-62
2022/02/11 01:09:29;;;;;;;13.13;11.07;;;3.10;99.90;;;;;;5080300;28;20482;-62
2022/02/11 01:11:59;;;;;;;14.03;11.80;;;3.10;99.90;;;;;;5079625;28;20461;-61
2022/02/11 01:14:33;;;;;;;14.93;11.13;;;3.20;99.90;;;;;;5079646;28;20511;-62
2022/02/11 01:17:11;;;;;;;16.17;11.60;;;3.20;99.90;;;;;;5079735;28;20469;-62
2022/02/11 01:19:47;;;;;;;15.73;12.37;;;3.10;99.90;;;;;;5079756;28;20488;-62
2022/02/11 01:22:24;;;;;;;17.63;12.10;;;3.10;99.90;;;;;;5079187;28;20500;-62
2022/02/11 01:27:56;;;;;;;16.70;12.57;;;3.10;99.90;;;;;;5073527;28;20587;-62
2022/02/11 01:33:31;;;;;;;21.53;14.30;;;3.20;99.90;;;;;;5078896;28;20531;-62
2022/02/11 01:36:12;;;;;;;18.40;13.67;;;3.20;99.90;;;;;;5087351;28;20515;-62
2022/02/11 01:38:54;;;;;;;22.10;15.23;;;3.10;99.90;;;;;;5091208;28;20975;-62
2022/02/11 01:44:29;;;;;;;17.47;15.30;;;3.10;99.90;;;;;;5078568;28;20934;-62
2022/02/11 01:47:18;;;;;;;16.47;14.10;;;3.10;99.90;;;;;;5079424;28;20475;-62
2022/02/11 01:52:42;;;;;;;17.87;14.97;;;3.10;99.90;;;;;;5076380;28;20788;-62
2022/02/11 01:55:34;;;;;;;16.60;14.90;;;3.10;99.90;;;;;;5079605;28;20453;-62
2022/02/11 01:58:47;;;;;;;18.07;14.73;;;3.10;99.90;;;;;;5078829;28;20511;-62
2022/02/11 02:12:31;;;;;;;19.77;16.63;;;3.10;99.90;;;;;;5078019;28;20486;-62
2022/02/11 02:15:38;;;;;;;22.60;17.53;;;3.10;99.90;;;;;;5079061;28;20515;-62
2022/02/11 02:19:00;;;;;;;21.33;16.20;;;3.10;99.90;;;;;;5078797;28;20461;-62
2022/02/11 02:27:03;;;;;;;20.40;16.47;;;3.10;99.90;;;;;;5077899;28;20756;-58
2022/02/11 02:32:58;;;;;;;21.87;15.90;;;3.00;99.90;;;;;;5029525;28;20452;-62
2022/02/11 02:38:36;;;;;;;24.70;17.03;;;2.90;99.90;;;;;;5049108;28;20445;-62
2022/02/11 02:57:44;;;;;;;22.47;17.90;;;2.90;99.90;;;;;;5076182;28;20781;-62
2022/02/11 03:00:39;;;;;;;22.73;17.33;;;2.90;99.90;;;;;;5077933;28;20493;-61
2022/02/11 03:14:46;;;;;;;20.73;17.87;;;2.90;99.90;;;;;;5073622;28;20487;-62
2022/02/11 03:17:54;;;;;;;21.60;17.03;;;2.80;99.90;;;;;;5075101;28;20586;-62
2022/02/11 03:54:00;;;;;;;28.00;18.50;;;2.70;99.90;;;;;;5039844;28;20458;-63
2022/02/11 04:21:50;;;;;;;24.07;17.60;;;2.80;99.90;;;;;;5076619;28;20528;-62
2022/02/11 05:00:11;;;;;;;21.63;14.90;;;2.70;99.90;;;;;;5075935;28;20946;-63
2022/02/11 05:02:39;;;;;;;21.27;14.47;;;2.70;99.90;;;;;;5076476;28;20440;-63
2022/02/11 05:05:08;;;;;;;18.13;15.07;;;2.70;99.90;;;;;;5079528;28;20523;-63
2022/02/11 05:07:36;;;;;;;24.23;17.03;;;2.70;99.90;;;;;;5079748;28;20483;-63
2022/02/11 05:10:04;;;;;;;22.70;15.90;;;2.70;99.90;;;;;;5078895;28;20432;-63
2022/02/11 05:12:33;;;;;;;26.77;15.20;;;2.80;99.90;;;;;;5079755;28;20502;-62
2022/02/11 05:15:08;;;;;;;23.73;15.00;;;2.80;99.90;;;;;;5079576;28;20473;-62
2022/02/11 05:17:36;;;;;;;23.47;15.27;;;2.80;99.90;;;;;;5079862;28;20489;-63
2022/02/11 05:20:04;;;;;;;21.13;15.90;;;2.80;99.90;;;;;;5079158;28;20571;-63
2022/02/11 05:22:32;;;;;;;22.50;14.17;;;2.80;99.90;;;;;;5080062;28;20839;-63
2022/02/11 05:24:59;;;;;;;32.70;16.47;;;2.90;99.90;;;;;;5079402;28;20461;-60
2022/02/11 05:27:26;;;;;;;21.77;14.37;;;2.80;99.90;;;;;;5079646;28;20755;-62
2022/02/11 05:29:55;;;;;;;30.60;15.83;;;2.80;99.90;;;;;;5079037;28;20511;-61
2022/02/11 05:32:22;;;;;;;19.77;15.33;;;2.90;99.90;;;;;;5078941;28;20465;-63
2022/02/11 05:34:49;;;;;;;24.73;17.07;;;2.90;99.90;;;;;;5079090;28;20465;-63
2022/02/11 05:37:16;;;;;;;24.70;16.87;;;2.90;99.90;;;;;;5097760;28;20808;-63
2022/02/11 05:39:44;;;;;;;20.13;15.20;;;2.90;99.90;;;;;;5092734;28;20837;-63
2022/02/11 05:42:11;;;;;;;20.57;14.40;;;2.90;99.90;;;;;;5079503;28;20468;-62
2022/02/11 05:44:40;;;;;;;26.63;16.50;;;3.00;99.90;;;;;;5079171;28;20819;-63
2022/02/11 05:47:09;;;;;;;21.27;15.23;;;3.00;99.90;;;;;;5079331;28;20515;-64
2022/02/11 05:49:42;;;;;;;20.10;16.80;;;3.00;99.90;;;;;;5079018;28;20461;-62
2022/02/11 05:52:09;;;;;;;25.90;17.20;;;3.00;99.90;;;;;;5078430;28;20469;-63
2022/02/11 05:54:36;;;;;;;22.87;15.47;;;3.00;99.90;;;;;;5065019;28;20462;-63
2022/02/11 05:57:03;;;;;;;27.77;17.07;;;3.00;99.90;;;;;;5077892;28;20538;-63
2022/02/11 05:59:30;;;;;;;23.20;15.40;;;3.10;99.90;;;;;;5078060;28;20549;-62
2022/02/11 06:01:57;;;;;;;28.83;17.93;;;3.00;99.90;;;;;;5077767;28;20547;-61
2022/02/11 06:04:26;;;;;;;19.40;14.57;;;3.10;99.90;;;;;;5078737;28;20461;-61
2022/02/11 06:06:53;;;;;;;18.53;14.13;;;3.10;99.90;;;;;;5058968;28;20485;-63
2022/02/11 06:09:20;;;;;;;24.83;15.80;;;3.10;99.90;;;;;;5058738;28;20446;-63
2022/02/11 06:11:47;;;;;;;24.90;13.67;;;3.10;99.90;;;;;;5069493;28;20462;-61
2022/02/11 06:14:15;;;;;;;26.67;13.47;;;3.10;99.90;;;;;;5075819;28;20482;-62
2022/02/11 06:16:46;;;;;;;25.30;15.10;;;3.10;99.90;;;;;;5078078;28;20444;-63
2022/02/11 06:19:13;;;;;;;22.77;13.40;;;3.20;99.90;;;;;;5078609;28;20588;-61
2022/02/11 06:21:44;;;;;;;21.30;13.80;;;3.20;99.90;;;;;;5078023;28;20465;-61
2022/02/11 06:24:11;;;;;;;20.43;13.10;;;3.20;99.90;;;;;;5077878;28;20776;-62
2022/02/11 06:26:40;;;;;;;20.50;13.30;;;3.20;99.90;;;;;;5077415;28;20484;-62
2022/02/11 06:29:07;;;;;;;18.40;11.80;;;3.20;99.90;;;;;;5077688;28;20774;-62
2022/02/11 06:31:34;;;;;;;22.73;11.83;;;3.20;99.90;;;;;;5077759;28;20894;-62
2022/02/11 06:34:01;;;;;;;18.53;11.20;;;3.20;99.90;;;;;;5077824;28;20473;-63
2022/02/11 06:36:28;;;;;;;20.50;11.67;;;3.20;99.90;;;;;;5074501;28;20888;-63
2022/02/11 06:38:57;;;;;;;25.67;12.00;;;3.20;99.90;;;;;;5074475;28;20519;-62
2022/02/11 06:41:24;;;;;;;18.97;10.63;;;3.20;99.90;;;;;;5077345;28;20431;-62
2022/02/11 06:43:53;;;;;;;17.40;11.27;;;3.20;99.90;;;;;;5077443;28;20465;-62
2022/02/11 06:46:21;;;;;;;17.93;9.77;;;3.20;99.90;;;;;;5075236;28;20454;-62
2022/02/11 06:48:49;;;;;;;19.10;10.97;;;3.30;99.90;;;;;;5077238;28;20538;-61
2022/02/11 06:51:16;;;;;;;19.83;9.70;;;3.30;99.90;;;;;;5078204;28;20562;-61
2022/02/11 06:53:46;;;;;;;18.23;10.53;;;3.40;99.90;;;;;;5076379;28;20515;-61
2022/02/11 06:56:15;;;;;;;17.70;10.67;;;3.40;99.90;;;;;;5077002;28;20485;-61
2022/02/11 06:58:42;;;;;;;21.07;10.37;;;3.30;99.90;;;;;;5075513;28;20461;-61
2022/02/11 07:01:09;;;;;;;15.40;10.93;;;3.30;99.90;;;;;;5075915;28;20996;-61
2022/02/11 07:03:37;;;;;;;19.03;10.30;;;3.30;99.90;;;;;;5077011;28;20461;-63
2022/02/11 07:06:04;;;;;;;12.13;8.20;;;3.30;99.90;;;;;;5077269;28;20511;-60
2022/02/11 07:08:31;;;;;;;14.73;9.40;;;3.30;99.90;;;;;;5076079;28;20457;-59
2022/02/11 07:10:58;;;;;;;13.47;9.40;;;3.20;99.90;;;;;;5076620;28;20515;-62
2022/02/11 07:13:32;;;;;;;13.87;8.93;;;3.20;99.90;;;;;;5076523;28;20483;-58
2022/02/11 07:16:00;;;;;;;13.77;8.90;;;3.20;99.90;;;;;;5077065;28;20534;-61
2022/02/11 07:18:29;;;;;;;14.97;7.90;;;3.20;99.90;;;;;;5077210;28;20487;-62
2022/02/11 07:20:59;;;;;;;13.30;8.43;;;3.20;99.90;;;;;;5075853;28;20471;-61
2022/02/11 07:23:26;;;;;;;14.50;7.63;;;3.20;99.90;;;;;;5076750;28;20516;-61
2022/02/11 07:25:56;;;;;;;15.37;7.40;;;3.20;99.90;;;;;;5076870;28;20461;-60
2022/02/11 07:28:25;;;;;;;11.43;8.17;;;3.10;99.90;;;;;;5077104;28;20461;-62
2022/02/11 07:30:58;;;;;;;13.67;8.43;;;3.00;99.90;;;;;;5075162;28;20562;-62
2022/02/11 07:33:25;;;;;;;12.87;8.30;;;3.00;99.90;;;;;;5076627;28;20461;-59
2022/02/11 07:35:52;;;;;;;12.63;6.37;;;2.80;99.90;;;;;;5077033;28;20740;-62
2022/02/11 07:38:19;;;;;;;12.80;6.90;;;2.70;99.90;;;;;;5075767;28;20488;-62
2022/02/11 07:40:47;;;;;;;12.83;7.30;;;2.60;99.90;;;;;;5075967;28;20488;-62
2022/02/11 07:43:14;;;;;;;9.67;6.77;;;2.50;99.90;;;;;;5076985;28;20465;-59
2022/02/11 07:45:47;;;;;;;19.10;9.40;;;2.50;99.90;;;;;;5076813;28;20461;-61
2022/02/11 07:48:15;;;;;;;18.83;11.60;;;2.50;99.90;;;;;;5077706;28;20457;-62
2022/02/11 07:50:45;;;;;;;17.00;10.87;;;2.50;99.90;;;;;;5076424;28;20924;-59
2022/02/11 07:53:14;;;;;;;18.33;13.30;;;2.70;99.90;;;;;;5077012;28;20878;-61
2022/02/11 07:55:41;;;;;;;23.80;10.80;;;2.90;99.90;;;;;;5076155;28;20560;-61
2022/02/11 07:58:08;;;;;;;22.60;10.40;;;3.10;99.90;;;;;;5077330;28;20465;-61
2022/02/11 08:00:37;;;;;;;15.90;8.57;;;3.20;99.90;;;;;;5076716;28;20471;-60
2022/02/11 08:03:09;;;;;;;17.50;9.67;;;3.20;99.90;;;;;;5076745;28;20455;-61
2022/02/11 08:05:37;;;;;;;16.10;8.93;;;3.30;99.90;;;;;;5076714;28;20469;-58
2022/02/11 08:08:05;;;;;;;19.43;9.50;;;3.40;99.90;;;;;;5076980;28;20469;-61
2022/02/11 08:10:31;;;;;;;17.10;8.90;;;3.40;99.90;;;;;;5077059;28;20519;-62
2022/02/11 08:12:58;;;;;;;19.30;9.03;;;3.50;99.90;;;;;;5075986;28;20465;-62
2022/02/11 08:15:25;;;;;;;18.00;8.60;;;3.50;99.90;;;;;;5057093;28;20448;-61
2022/02/11 08:17:53;;;;;;;14.43;8.13;;;3.50;99.90;;;;;;5056944;28;20832;-59
2022/02/11 08:20:20;;;;;;;23.57;6.70;;;3.60;99.90;;;;;;5056840;28;20465;-62
2022/02/11 08:22:49;;;;;;;15.83;6.50;;;3.60;99.90;;;;;;5065504;28;20461;-60
2022/02/11 08:25:16;;;;;;;18.30;5.40;;;3.70;99.90;;;;;;5076615;28;20608;-60
2022/02/11 08:27:47;;;;;;;11.30;5.53;;;3.70;99.90;;;;;;5076348;28;20552;-62
2022/02/11 08:30:15;;;;;;;8.80;4.60;;;3.80;99.90;;;;;;5077026;28;20450;-61
2022/02/11 08:32:43;;;;;;;12.47;4.70;;;3.70;99.90;;;;;;5076574;28;20746;-62
2022/02/11 08:35:10;;;;;;;15.30;4.10;;;3.80;99.90;;;;;;5077853;28;20774;-62
2022/02/11 08:37:38;;;;;;;11.20;4.53;;;3.80;99.90;;;;;;5086958;28;20454;-61
2022/02/11 08:40:08;;;;;;;17.53;4.67;;;3.80;99.90;;;;;;5078993;28;20537;-63
2022/02/11 08:42:35;;;;;;;15.40;4.30;;;3.90;99.90;;;;;;5079860;28;20831;-62
2022/02/11 08:45:07;;;;;;;8.50;4.27;;;4.00;99.90;;;;;;5079658;28;20530;-63
2022/02/11 08:47:38;;;;;;;11.03;4.70;;;4.00;99.90;;;;;;5079958;28;20891;-63
2022/02/11 08:50:06;;;;;;;18.07;4.07;;;3.90;99.90;;;;;;5077574;28;20450;-63
2022/02/11 08:52:33;;;;;;;15.63;4.43;;;3.90;99.90;;;;;;5080130;28;20453;-63
2022/02/11 08:55:03;;;;;;;10.67;4.80;;;3.80;99.90;;;;;;5079313;28;20476;-63
2022/02/11 08:57:32;;;;;;;16.57;6.73;;;3.90;99.90;;;;;;5080030;28;20519;-63
2022/02/11 08:59:59;;;;;;;17.10;7.17;;;3.80;99.90;;;;;;5080082;28;20514;-63
2022/02/11 09:02:26;;;;;;;16.90;8.17;;;3.70;99.90;;;;;;5078436;28;20469;-63
2022/02/11 09:04:59;;;;;;;17.00;8.50;;;3.80;99.90;;;;;;5078475;28;20905;-63
2022/02/11 09:07:26;;;;;;;17.60;7.93;;;3.80;99.90;;;;;;5079294;28;20461;-61
2022/02/11 09:09:53;;;;;;;23.47;7.27;;;3.80;99.90;;;;;;5078816;28;20461;-62
2022/02/11 09:12:20;;;;;;;17.83;5.93;;;3.70;99.90;;;;;;5079110;28;20902;-63
2022/02/11 09:14:48;;;;;;;27.30;6.50;;;3.80;99.90;;;;;;5077473;28;20530;-62
2022/02/11 09:17:20;;;;;;;11.80;6.00;;;3.70;99.90;;;;;;5078915;28;20461;-62
2022/02/11 09:19:50;;;;;;;16.93;6.27;;;3.70;99.90;;;;;;5079503;28;20500;-63
2022/02/11 09:22:19;;;;;;;13.40;6.40;;;3.80;99.90;;;;;;5080016;28;20472;-63
2022/02/11 09:24:51;;;;;;;12.57;4.93;;;3.90;99.90;;;;;;5078795;28;20501;-62
2022/02/11 09:27:19;;;;;;;17.77;6.47;;;3.90;99.90;;;;;;5080073;28;21020;-63
2022/02/11 09:29:46;;;;;;;12.90;5.50;;;4.00;99.90;;;;;;5079317;28;20471;-62
2022/02/11 09:32:14;;;;;;;19.87;6.20;;;4.00;99.90;;;;;;5079869;28;21000;-61
2022/02/11 09:34:41;;;;;;;19.73;5.47;;;4.00;99.90;;;;;;5079672;28;20461;-63
2022/02/11 09:37:11;;;;;;;17.03;5.27;;;4.00;99.90;;;;;;5079251;28;20495;-62
2022/02/11 09:39:38;;;;;;;14.70;5.30;;;4.10;99.90;;;;;;5079768;28;20774;-62
2022/02/11 09:42:06;;;;;;;17.30;5.93;;;4.30;99.90;;;;;;5079129;28;20456;-63
2022/02/11 09:44:34;;;;;;;13.40;4.90;;;4.30;99.90;;;;;;5077885;28;20436;-62
2022/02/11 09:47:04;;;;;;;17.33;5.63;;;4.30;99.90;;;;;;5078109;28;20921;-63
2022/02/11 09:49:34;;;;;;;16.77;5.57;;;4.40;99.90;;;;;;5078069;28;20519;-63
2022/02/11 09:52:03;;;;;;;16.70;6.13;;;4.30;99.90;;;;;;5079739;28;20841;-63
2022/02/11 09:54:32;;;;;;;12.23;4.13;;;4.20;99.90;;;;;;5078634;28;20892;-63
2022/02/11 09:56:59;;;;;;;22.33;5.80;;;4.30;99.90;;;;;;5078658;28;20493;-63
2022/02/11 09:59:26;;;;;;;20.53;5.20;;;4.40;99.90;;;;;;5078898;28;20927;-63
2022/02/11 10:01:53;;;;;;;18.07;5.50;;;4.40;99.90;;;;;;5079222;28;20948;-61
2022/02/11 10:04:22;;;;;;;17.17;5.93;;;4.50;99.90;;;;;;5078669;28;20462;-63
2022/02/11 10:06:53;;;;;;;12.27;4.53;;;4.60;99.90;;;;;;5078851;28;20468;-64
2022/02/11 10:09:23;;;;;;;15.87;4.57;;;4.70;99.90;;;;;;5078316;28;20467;-63
2022/02/11 10:11:56;;;;;;;18.93;5.20;;;4.70;99.90;;;;;;5079057;28;20804;-63
2022/02/11 10:14:28;;;;;;;10.97;4.23;;;4.70;99.90;;;;;;5077706;28;20531;-64
2022/02/11 10:16:57;;;;;;;11.50;4.53;;;4.80;99.90;;;;;;5078660;28;20511;-64
2022/02/11 10:19:38;;;;;;;27.70;5.70;;;5.20;99.90;;;;;;5078411;28;20530;-64
2022/02/11 10:22:12;;;;;;;14.70;4.77;;;5.60;99.90;;;;;;5078762;28;20547;-64
2022/02/11 10:24:42;;;;;;;14.33;4.30;;;5.70;99.90;;;;;;5078073;28;20465;-65
2022/02/11 10:27:24;;;;;;;14.53;3.63;;;5.90;1.00;;;;;;5078811;28;20818;-65
2022/02/11 10:29:52;;;;;;;8.50;3.90;;;6.20;1.00;;;;;;5077397;28;20472;-65
2022/02/11 10:32:19;;;;;;;16.83;4.27;;;6.10;1.00;;;;;;5078350;28;20552;-65
2022/02/11 10:34:53;;;;;;;23.27;6.13;;;5.90;1.00;;;;;;5077476;28;20453;-65
2022/02/11 10:37:21;;;;;;;18.77;5.17;;;5.90;1.00;;;;;;5078054;28;20486;-65
2022/02/11 10:39:56;;;;;;;17.33;4.57;;;5.70;1.00;;;;;;5078292;28;20943;-65
2022/02/11 10:42:41;;;;;;;18.00;5.13;;;5.70;1.00;;;;;;5078359;28;20995;-65
2022/02/11 10:45:37;;;;;;;17.90;4.70;;;5.70;1.00;;;;;;5076563;28;20467;-65
2022/02/11 10:48:18;;;;;;;11.57;4.57;;;5.50;1.00;;;;;;5078018;28;20457;-65
2022/02/11 10:50:53;;;;;;;14.77;5.03;;;5.80;1.00;;;;;;5076561;28;20428;-65
2022/02/11 10:53:28;;;;;;;15.90;4.80;;;6.30;1.00;;;;;;5056690;28;20462;-65
2022/02/11 10:55:59;;;;;;;15.43;3.90;;;6.40;1.00;;;;;;5070591;28;20430;-65
2022/02/11 10:58:30;;;;;;;14.53;4.70;;;5.90;1.00;;;;;;5077858;28;20956;-65
2022/02/11 11:01:00;;;;;;;14.10;4.23;;;5.70;1.00;;;;;;5076648;28;20481;-65
2022/02/11 11:03:29;;;;;;;14.97;4.33;;;5.60;1.00;;;;;;5076580;28;20465;-64
2022/02/11 11:05:58;;;;;;;14.07;3.97;;;5.40;1.00;;;;;;5077981;28;20907;-64
2022/02/11 11:08:29;;;;;;;14.60;4.10;;;5.30;1.00;;;;;;5077449;28;20894;-64
2022/02/11 11:10:59;;;;;;;15.43;5.00;;;5.30;1.00;;;;;;5077627;28;20436;-64
2022/02/11 11:13:29;;;;;;;11.13;4.10;;;5.30;1.00;;;;;;5077404;28;20461;-64
2022/02/11 11:15:57;;;;;;;9.60;3.83;;;5.30;1.00;;;;;;5077553;28;20440;-64
2022/02/11 11:18:27;;;;;;;24.53;4.50;;;5.30;1.00;;;;;;5076818;28;20552;-64
2022/02/11 11:21:02;;;;;;;10.63;4.40;;;5.40;1.00;;;;;;5076442;28;20485;-64
2022/02/11 11:23:31;;;;;;;13.07;4.50;;;5.30;1.00;;;;;;5072910;28;20485;-64
2022/02/11 11:26:04;;;;;;;19.40;4.90;;;5.30;1.00;;;;;;5076073;28;20459;-64
2022/02/11 11:28:46;;;;;;;13.87;4.33;;;5.40;1.00;;;;;;5076646;28;20905;-64
2022/02/11 11:31:22;;;;;;;10.33;4.07;;;5.40;1.00;;;;;;5057295;28;20454;-64
2022/02/11 11:33:53;;;;;;;15.43;4.53;;;5.50;1.00;;;;;;5065071;28;20745;-64
2022/02/11 11:36:26;;;;;;;10.63;4.17;;;5.60;1.00;;;;;;5075507;28;20906;-64
2022/02/11 11:39:07;;;;;;;28.73;5.47;;;5.70;1.00;;;;;;5075158;28;20465;-64
2022/02/11 11:41:35;;;;;;;8.53;3.73;;;5.90;1.00;;;;;;5076490;28;20816;-64
2022/02/11 11:44:22;;;;;;;16.93;4.73;;;6.00;1.00;;;;;;5076618;28;20567;-64
2022/02/11 11:46:50;;;;;;;11.37;4.60;;;6.00;1.00;;;;;;5075168;28;20449;-64
2022/02/11 11:49:20;;;;;;;12.20;4.30;;;5.90;1.00;;;;;;5075392;28;20480;-64
2022/02/11 11:52:08;;;;;;;21.53;4.60;;;5.80;1.00;;;;;;5076335;28;20550;-64
2022/02/11 11:54:38;;;;;;;14.70;3.80;;;5.60;1.00;;;;;;5076914;28;20469;-64
2022/02/11 11:57:06;;;;;;;14.60;3.37;;;5.70;1.00;;;;;;5076640;28;20496;-64
2022/02/11 11:59:40;;;;;;;19.43;4.63;;;5.60;1.00;;;;;;5076585;28;20500;-63
2022/02/11 12:02:11;;;;;;;12.83;4.70;;;5.70;1.00;;;;;;5076708;28;20489;-64
2022/02/11 12:04:52;;;;;;;16.00;4.87;;;5.70;1.00;;;;;;5077198;28;20482;-64
2022/02/11 12:07:21;;;;;;;18.07;4.70;;;5.80;1.00;;;;;;5076931;28;20518;-64
2022/02/11 12:09:55;;;;;;;13.03;3.07;;;5.90;1.00;;;;;;5075190;28;20465;-64
2022/02/11 12:12:23;;;;;;;20.13;6.30;;;6.10;1.00;;;;;;5076504;28;20564;-64
2022/02/11 12:14:52;;;;;;;17.90;4.73;;;5.90;1.00;;;;;;5080657;28;20891;-64
2022/02/11 12:17:21;;;;;;;14.47;3.47;;;5.90;1.00;;;;;;5080689;28;20465;-64
2022/02/11 12:19:50;;;;;;;11.10;3.77;;;5.70;99.90;;;;;;5080701;28;20935;-64
2022/02/11 12:22:20;;;;;;;12.93;4.27;;;5.80;99.90;;;;;;5074710;28;20942;-64
2022/02/11 12:27:38;;;;;;;8.40;3.17;;;6.10;99.90;;;;;;5079163;28;20456;-63
2022/02/11 12:30:08;;;;;;;9.50;3.90;;;6.20;99.90;;;;;;5080658;28;20468;-63
2022/02/11 12:32:39;;;;;;;9.13;4.30;;;6.30;99.90;;;;;;5079811;28;20495;-63
2022/02/11 12:35:10;;;;;;;16.33;4.07;;;6.30;99.90;;;;;;5079441;28;20465;-63
2022/02/11 12:37:39;;;;;;;11.27;3.53;;;6.10;99.90;;;;;;5079729;28;20831;-62
2022/02/11 12:40:09;;;;;;;9.23;3.90;;;6.20;99.90;;;;;;5079751;28;20944;-64
2022/02/11 12:42:44;;;;;;;11.43;3.33;;;6.20;99.90;;;;;;5078954;28;20485;-63
2022/02/11 12:45:12;;;;;;;7.23;3.43;;;6.00;99.90;;;;;;5071913;28;20465;-63
2022/02/11 12:47:42;;;;;;;11.90;3.87;;;5.90;99.90;;;;;;5078869;28;20443;-63
2022/02/11 12:50:13;;;;;;;11.80;3.20;;;5.90;99.90;;;;;;5075299;28;20548;-63
2022/02/11 12:52:41;;;;;;;13.80;3.37;;;5.80;99.90;;;;;;5077657;28;20457;-63
2022/02/11 12:55:14;;;;;;;9.73;3.07;;;5.90;99.90;;;;;;5079545;28;20448;-64
2022/02/11 12:57:46;;;;;;;7.57;3.00;;;5.80;99.90;;;;;;5078326;28;20979;-63
2022/02/11 13:00:22;;;;;;;5.90;3.00;;;5.90;99.90;;;;;;5078961;28;20461;-61
2022/02/11 13:02:57;;;;;;;8.83;3.00;;;5.80;99.90;;;;;;5058679;28;20588;-63
2022/02/11 13:05:28;;;;;;;10.33;4.10;;;5.70;99.90;;;;;;5058442;28;20907;-63
2022/02/11 13:07:57;;;;;;;11.07;4.30;;;5.50;99.90;;;;;;5070195;28;20465;-61
2022/02/11 13:10:25;;;;;;;14.27;3.00;;;5.60;99.90;;;;;;5078368;28;20560;-63
2022/02/11 13:12:55;;;;;;;8.27;3.00;;;6.00;99.90;;;;;;5078228;28;20510;-63
2022/02/11 13:15:27;;;;;;;9.43;2.67;;;6.40;99.90;;;;;;5077898;28;20444;-62
2022/02/11 13:17:56;;;;;;;14.07;2.70;;;6.50;99.90;;;;;;5078270;28;20918;-63
2022/02/11 13:20:27;;;;;;;9.03;3.07;;;6.70;99.90;;;;;;5079118;28;20461;-63
2022/02/11 13:23:00;;;;;;;16.60;3.90;;;6.50;99.90;;;;;;5078955;28;20482;-63
2022/02/11 13:25:32;;;;;;;12.40;3.13;;;6.70;99.90;;;;;;5078666;28;20544;-62
2022/02/11 13:28:06;;;;;;;13.50;3.90;;;6.60;99.90;;;;;;5078448;28;20469;-62
2022/02/11 13:30:38;;;;;;;7.20;3.17;;;6.60;99.90;;;;;;5079450;28;20482;-63
2022/02/11 13:33:21;;;;;;;9.63;2.67;;;6.50;99.90;;;;;;5078808;28;20456;-62
2022/02/11 13:35:51;;;;;;;7.27;2.80;;;6.70;99.90;;;;;;5077668;28;20825;-62
2022/02/11 13:38:26;;;;;;;8.43;2.63;;;6.80;99.90;;;;;;5078279;28;20544;-62
2022/02/11 13:40:58;;;;;;;6.33;2.87;;;6.80;99.90;;;;;;5079424;28;20464;-62
2022/02/11 13:43:28;;;;;;;9.70;2.90;;;6.90;99.90;;;;;;5078743;28;20493;-61
2022/02/11 13:46:02;;;;;;;10.97;3.20;;;7.20;99.90;;;;;;5079146;28;20556;-62
2022/02/11 13:48:33;;;;;;;7.73;2.33;;;7.00;99.90;;;;;;5078861;28;20687;-62
2022/02/11 13:51:13;;;;;;;7.73;3.10;;;6.70;99.90;;;;;;5079231;28;20457;-62
2022/02/11 13:53:43;;;;;;;8.73;2.40;;;6.50;99.90;;;;;;5079168;28;20826;-61
2022/02/11 13:56:17;;;;;;;6.60;2.80;;;6.50;99.90;;;;;;5079110;28;20499;-61
2022/02/11 13:59:05;;;;;;;12.20;3.00;;;6.40;99.90;;;;;;5078712;28;20467;-62
2022/02/11 14:01:33;;;;;;;3.83;2.33;;;6.40;99.90;;;;;;5076420;28;20508;-62
2022/02/11 14:04:02;;;;;;;9.20;3.13;;;6.40;99.90;;;;;;5078896;28;20530;-61
2022/02/11 14:06:36;;;;;;;13.10;2.97;;;6.30;99.90;;;;;;5078890;28;20574;-61
2022/02/11 14:09:05;;;;;;;8.20;2.70;;;6.20;99.90;;;;;;5078643;28;20894;-62
2022/02/11 14:11:37;;;;;;;11.60;3.37;;;6.30;99.90;;;;;;5077728;28;20548;-61
2022/02/11 14:14:13;;;;;;;5.67;3.17;;;6.30;99.90;;;;;;5078607;28;20971;-61
2022/02/11 14:16:40;;;;;;;10.57;3.50;;;6.00;99.90;;;;;;5078574;28;20544;-62
2022/02/11 14:19:08;;;;;;;9.20;4.13;;;5.80;99.90;;;;;;5078750;28;20518;-62
2022/02/11 14:21:37;;;;;;;10.37;3.80;;;5.60;99.90;;;;;;5077829;28;20495;-61
2022/02/11 14:24:11;;;;;;;8.93;3.97;;;5.60;99.90;;;;;;5078478;28;20461;-61
2022/02/11 14:26:38;;;;;;;9.93;3.53;;;5.50;99.90;;;;;;5078367;28;20548;-60
2022/02/11 14:29:07;;;;;;;7.30;3.87;;;5.40;99.90;;;;;;5078020;28;20902;-61
2022/02/11 14:31:39;;;;;;;16.70;3.80;;;5.40;99.90;;;;;;5077708;28;20531;-62
2022/02/11 14:34:09;;;;;;;8.50;3.17;;;5.30;99.90;;;;;;5079016;28;20465;-60
2022/02/11 14:36:38;;;;;;;16.50;3.30;;;5.40;99.90;;;;;;5077574;28;20813;-60
2022/02/11 14:39:13;;;;;;;8.83;3.67;;;5.50;99.90;;;;;;5077840;28;20769;-60
2022/02/11 14:41:49;;;;;;;8.73;3.57;;;5.50;99.90;;;;;;5077423;28;20497;-59
2022/02/11 14:44:21;;;;;;;12.33;3.60;;;5.50;99.90;;;;;;5078795;28;20563;-60
2022/02/11 14:46:59;;;;;;;9.10;3.40;;;5.30;99.90;;;;;;5077769;28;20515;-61
2022/02/11 14:49:26;;;;;;;10.20;3.60;;;5.40;99.90;;;;;;5078172;28;20532;-60
2022/02/11 14:51:56;;;;;;;13.93;5.20;;;5.50;99.90;;;;;;5077192;28;20734;-62
2022/02/11 14:54:25;;;;;;;8.40;2.77;;;5.60;99.90;;;;;;5076778;28;20458;-59
2022/02/11 14:56:55;;;;;;;10.83;3.70;;;5.50;99.90;;;;;;5074243;28;20542;-62
2022/02/11 14:59:22;;;;;;;10.30;3.10;;;5.50;99.90;;;;;;5076230;28;20851;-61
2022/02/11 15:01:56;;;;;;;8.47;3.00;;;5.50;99.90;;;;;;5077299;28;20489;-60
2022/02/11 15:04:24;;;;;;;11.00;2.80;;;5.50;99.90;;;;;;5077313;28;20534;-61
2022/02/11 15:06:51;;;;;;;7.93;3.20;;;5.50;99.90;;;;;;5077118;28;20465;-60
2022/02/11 15:09:22;;;;;;;11.13;3.60;;;5.50;99.90;;;;;;5077659;28;20465;-61
2022/02/11 15:11:50;;;;;;;17.20;3.37;;;5.40;99.90;;;;;;5077732;28;20465;-60
2022/02/11 15:14:18;;;;;;;11.83;3.50;;;5.40;99.90;;;;;;5076441;28;20466;-60
2022/02/11 15:16:46;;;;;;;14.63;3.80;;;5.50;99.90;;;;;;5077404;28;20709;-59
2022/02/11 15:19:14;;;;;;;9.30;2.87;;;5.50;99.90;;;;;;5076753;28;20830;-61
2022/02/11 15:21:45;;;;;;;9.50;3.57;;;5.40;99.90;;;;;;5077459;28;20542;-61
2022/02/11 15:24:12;;;;;;;3.73;2.40;;;5.50;99.90;;;;;;5077185;28;20472;-59
2022/02/11 15:26:41;;;;;;;9.47;3.57;;;5.40;99.90;;;;;;5077732;28;20805;-61
2022/02/11 15:29:10;;;;;;;13.53;4.17;;;5.30;99.90;;;;;;5077082;28;20757;-62
2022/02/11 15:31:38;;;;;;;8.07;3.10;;;5.30;99.90;;;;;;5077570;28;20515;-61
2022/02/11 15:34:06;;;;;;;10.07;3.00;;;5.20;99.90;;;;;;5076932;28;20469;-61
2022/02/11 15:36:34;;;;;;;11.90;3.30;;;5.20;99.90;;;;;;5077257;28;20551;-60
2022/02/11 15:39:04;;;;;;;7.77;3.07;;;5.10;99.90;;;;;;5076355;28;20518;-59
2022/02/11 15:41:31;;;;;;;10.13;4.53;;;5.10;99.90;;;;;;5072799;28;20480;-61
2022/02/11 15:43:59;;;;;;;8.00;3.33;;;5.00;99.90;;;;;;5075072;28;20485;-61
2022/02/11 15:46:28;;;;;;;8.90;3.10;;;5.00;99.90;;;;;;5075328;28;20534;-58
2022/02/11 15:48:55;;;;;;;14.30;3.73;;;4.90;99.90;;;;;;5075064;28;20466;-60
2022/02/11 15:51:22;;;;;;;8.67;3.60;;;4.80;99.90;;;;;;5073106;28;20519;-61
2022/02/11 15:53:51;;;;;;;6.70;3.50;;;4.80;99.90;;;;;;5075535;28;20511;-60
2022/02/11 15:56:21;;;;;;;12.43;3.10;;;4.90;99.90;;;;;;5074163;28;20488;-62
2022/02/11 15:58:51;;;;;;;10.50;3.57;;;4.90;99.90;;;;;;5073080;28;20432;-58
2022/02/11 16:01:21;;;;;;;10.30;2.80;;;5.00;99.90;;;;;;5074105;28;20755;-61
2022/02/11 16:03:48;;;;;;;8.27;2.80;;;5.00;99.90;;;;;;5073412;28;20485;-61
2022/02/11 16:06:16;;;;;;;5.80;2.57;;;5.00;99.90;;;;;;5073867;28;20461;-61
2022/02/11 16:08:47;;;;;;;10.27;2.63;;;5.00;99.90;;;;;;5073118;28;20567;-60
2022/02/11 16:11:16;;;;;;;12.90;3.13;;;5.00;99.90;;;;;;5072782;28;20473;-60
2022/02/11 16:13:43;;;;;;;9.43;2.87;;;4.90;99.90;;;;;;5072929;28;20522;-60